createdAt,value
2019-05-20T00:02:23.059Z,72.08
2019-05-20T00:04:41.054Z,72.06
2019-05-20T00:07:11.853Z,72.55
2019-05-20T00:09:42.690Z,72.99
2019-05-20T00:12:14.581Z,73.45
2019-05-20T00:14:46.553Z,73.70
2019-05-20T00:17:17.873Z,73.89
2019-05-20T00:19:50.748Z,74.23
2019-05-20T00:22:21.385Z,74.23
2019-05-20T00:24:52.102Z,74.33
2019-05-20T00:27:24.178Z,74.62
2019-05-20T00:29:54.968Z,75.06
2019-05-20T00:32:40.215Z,75.35
2019-05-20T00:34:59.193Z,75.49
2019-05-20T00:37:30.051Z,75.70
2019-05-20T00:40:01.065Z,75.99
2019-05-20T00:42:31.699Z,76.23
2019-05-20T00:45:02.471Z,76.46
2019-05-20T00:47:33.120Z,76.51
2019-05-20T00:50:03.667Z,76.76
2019-05-20T00:52:34.274Z,77.19
2019-05-20T00:55:04.834Z,77.15
2019-05-20T00:57:35.694Z,77.52
2019-05-20T01:00:07.296Z,77.54
2019-05-20T01:02:39.914Z,77.75
2019-05-20T01:05:11.163Z,77.84
2019-05-20T01:07:41.871Z,77.88
2019-05-20T01:10:12.676Z,78.13
2019-05-20T01:12:44.456Z,78.61
2019-05-20T01:15:16.038Z,79.12
2019-05-20T01:17:47.030Z,79.43
2019-05-20T01:20:17.923Z,79.77
2019-05-20T01:22:48.685Z,80.33
2019-05-20T01:25:19.369Z,80.50
2019-05-20T01:27:49.945Z,81.34
2019-05-20T01:30:20.823Z,81.85
2019-05-20T01:32:51.452Z,82.33
2019-05-20T01:35:22.481Z,82.52
2019-05-20T01:37:53.182Z,82.77
2019-05-20T01:40:24.073Z,82.72
2019-05-20T01:42:54.702Z,82.76
2019-05-20T01:45:25.479Z,83.18
2019-05-20T01:47:56.414Z,83.31
2019-05-20T01:50:27.050Z,83.33
2019-05-20T01:52:57.738Z,83.33
2019-05-20T01:55:28.605Z,83.27
2019-05-20T01:57:59.278Z,83.62
2019-05-20T02:00:30.089Z,83.64
2019-05-20T02:03:01.304Z,83.44
2019-05-20T02:05:31.898Z,83.51
2019-05-20T02:08:02.557Z,83.34
2019-05-20T02:10:33.343Z,83.23
2019-05-20T02:13:05.180Z,83.31
2019-05-20T02:15:50.983Z,83.54
2019-05-20T02:18:21.756Z,83.62
2019-05-20T02:20:52.448Z,83.84
2019-05-20T02:23:25.110Z,83.82
2019-05-20T02:25:55.825Z,83.67
2019-05-20T02:28:26.474Z,83.64
2019-05-20T02:30:57.316Z,83.69
2019-05-20T02:33:28.160Z,83.95
2019-05-20T02:35:59.018Z,83.93
2019-05-20T02:38:29.618Z,83.96
2019-05-20T02:41:00.285Z,83.58
2019-05-20T02:43:30.889Z,83.52
2019-05-20T02:46:01.592Z,82.87
2019-05-20T02:48:32.299Z,81.96
2019-05-20T02:51:04.833Z,81.40
2019-05-20T02:53:35.433Z,81.17
2019-05-20T02:56:06.287Z,80.80
2019-05-20T02:58:39.580Z,80.68
2019-05-20T03:01:10.362Z,81.10
2019-05-20T03:03:41.421Z,81.34
2019-05-20T03:06:11.856Z,81.39
2019-05-20T03:08:42.583Z,80.80
2019-05-20T03:11:14.770Z,79.97
2019-05-20T03:13:50.984Z,79.69
2019-05-20T03:16:23.094Z,79.38
2019-05-20T03:18:53.805Z,79.38
2019-05-20T03:21:24.488Z,79.13
2019-05-20T03:23:56.605Z,78.41
2019-05-20T03:26:27.422Z,77.38
2019-05-20T03:28:58.099Z,76.65
2019-05-20T03:31:30.357Z,76.17
2019-05-20T03:34:01.000Z,75.32
2019-05-20T03:36:31.613Z,74.00
2019-05-20T03:39:02.162Z,71.04
2019-05-20T03:41:32.773Z,67.73
2019-05-20T03:44:03.894Z,64.39
2019-05-20T03:46:34.647Z,59.38
2019-05-20T03:49:05.674Z,55.68
2019-05-20T03:51:37.819Z,53.65
2019-05-20T03:54:08.527Z,52.53
2019-05-20T03:56:40.124Z,51.61
2019-05-20T03:59:10.993Z,51.96
2019-05-20T04:01:42.134Z,52.81
2019-05-20T04:04:14.235Z,54.73
2019-05-20T04:06:44.892Z,54.29
2019-05-20T04:09:15.320Z,52.55
2019-05-20T04:11:45.976Z,51.72
2019-05-20T04:14:17.739Z,50.76
2019-05-20T04:16:51.681Z,48.36
2019-05-20T04:19:22.415Z,48.52
2019-05-20T04:21:53.200Z,49.52
2019-05-20T04:24:23.718Z,49.39
2019-05-20T04:26:58.428Z,50.47
2019-05-20T04:29:30.366Z,51.42
2019-05-20T04:32:01.378Z,52.04
2019-05-20T04:34:32.688Z,53.36
2019-05-20T04:37:03.681Z,52.66
2019-05-20T04:39:34.552Z,50.12
2019-05-20T04:42:06.743Z,48.77
2019-05-20T04:44:37.950Z,47.71
2019-05-20T04:47:08.675Z,48.74
2019-05-20T04:49:41.074Z,48.98
2019-05-20T04:52:11.876Z,50.40
2019-05-20T04:54:43.141Z,51.08
2019-05-20T04:57:15.050Z,52.12
2019-05-20T04:59:45.733Z,52.50
2019-05-20T05:02:16.422Z,52.64
2019-05-20T05:04:47.182Z,51.79
2019-05-20T05:07:17.955Z,49.54
2019-05-20T05:09:49.042Z,47.31
2019-05-20T05:12:20.000Z,44.09
2019-05-20T05:14:52.135Z,41.53
2019-05-20T05:17:22.764Z,39.56
2019-05-20T05:19:53.902Z,36.89
2019-05-20T05:22:24.614Z,37.53
2019-05-20T05:24:58.185Z,38.89
2019-05-20T05:27:29.155Z,39.68
2019-05-20T05:29:59.858Z,39.39
2019-05-20T05:32:43.482Z,37.60
2019-05-20T05:35:17.111Z,37.46
2019-05-20T05:37:48.617Z,37.28
2019-05-20T05:40:19.735Z,39.78
2019-05-20T05:42:50.581Z,38.90
2019-05-20T05:45:24.076Z,41.08
2019-05-20T05:47:54.602Z,43.28
2019-05-20T05:50:26.243Z,41.70
2019-05-20T05:52:57.067Z,42.45
2019-05-20T05:55:28.378Z,43.25
2019-05-20T05:57:59.404Z,43.67
2019-05-20T06:00:30.196Z,43.83
2019-05-20T06:03:01.162Z,44.94
2019-05-20T06:05:31.957Z,47.60
2019-05-20T06:08:02.652Z,49.74
2019-05-20T06:10:35.705Z,48.43
2019-05-20T06:13:06.090Z,46.80
2019-05-20T06:15:37.984Z,43.71
2019-05-20T06:18:08.632Z,42.11
2019-05-20T06:20:39.335Z,39.29
2019-05-20T06:23:10.145Z,37.01
2019-05-20T06:25:40.706Z,35.32
2019-05-20T06:28:11.308Z,34.17
2019-05-20T06:30:43.963Z,35.75
2019-05-20T06:36:07.662Z,37.49
2019-05-20T06:38:50.419Z,39.06
2019-05-20T06:41:22.455Z,42.15
2019-05-20T06:43:53.076Z,42.95
2019-05-20T06:46:24.054Z,42.40
2019-05-20T06:48:55.075Z,43.15
2019-05-20T06:51:25.917Z,43.60
2019-05-20T06:53:56.561Z,44.13
2019-05-20T06:56:28.268Z,43.27
2019-05-20T06:58:59.195Z,41.57
2019-05-20T07:01:30.107Z,41.84
2019-05-20T07:04:01.869Z,44.13
2019-05-20T07:06:45.281Z,43.18
2019-05-20T07:09:06.266Z,45.13
2019-05-20T07:11:37.118Z,46.58
2019-05-20T07:14:07.839Z,47.43
2019-05-20T07:16:38.538Z,48.49
2019-05-20T07:19:09.421Z,50.04
2019-05-20T07:21:40.231Z,51.00
2019-05-20T07:24:11.205Z,52.47
2019-05-20T07:26:41.971Z,52.73
2019-05-20T07:29:14.165Z,53.62
2019-05-20T07:31:45.961Z,53.47
2019-05-20T07:34:17.184Z,53.53
2019-05-20T07:37:01.892Z,54.28
2019-05-20T07:39:20.459Z,54.51
2019-05-20T07:41:51.390Z,55.26
2019-05-20T07:44:22.329Z,56.50
2019-05-20T07:46:53.087Z,56.69
2019-05-20T07:49:24.512Z,55.73
2019-05-20T07:51:57.265Z,54.73
2019-05-20T07:54:28.469Z,55.49
2019-05-20T07:57:03.985Z,54.79
2019-05-20T07:59:36.436Z,53.93
2019-05-20T08:02:07.455Z,54.05
2019-05-20T08:04:38.147Z,53.24
2019-05-20T08:07:26.565Z,54.50
2019-05-20T08:09:46.054Z,56.25
2019-05-20T08:12:13.997Z,56.94
2019-05-20T08:14:45.090Z,56.97
2019-05-20T08:17:17.043Z,57.11
2019-05-20T08:19:47.697Z,56.02
2019-05-20T08:22:18.558Z,56.59
2019-05-20T08:24:49.552Z,57.52
2019-05-20T08:27:20.124Z,56.92
2019-05-20T08:29:52.449Z,56.59
2019-05-20T08:32:23.230Z,56.02
2019-05-20T08:34:56.293Z,55.30
2019-05-20T08:37:42.102Z,54.58
2019-05-20T08:39:59.923Z,54.50
2019-05-20T08:42:30.748Z,54.95
2019-05-20T08:45:02.133Z,53.71
2019-05-20T08:47:33.176Z,53.56
2019-05-20T08:50:07.247Z,54.92
2019-05-20T08:52:37.472Z,53.94
2019-05-20T08:55:09.275Z,54.16
2019-05-20T08:57:39.998Z,55.66
2019-05-20T09:00:22.098Z,56.62
2019-05-20T09:02:48.557Z,56.20
2019-05-20T09:05:20.510Z,55.38
2019-05-20T09:08:02.388Z,55.21
2019-05-20T09:10:23.664Z,55.12
2019-05-20T09:12:54.386Z,55.79
2019-05-20T09:16:18.404Z,55.87
2019-05-20T09:18:49.081Z,55.89
2019-05-20T09:21:19.635Z,56.29
2019-05-20T09:23:50.106Z,56.80
2019-05-20T09:26:20.689Z,56.45
2019-05-20T09:28:51.342Z,56.96
2019-05-20T09:31:22.425Z,57.64
2019-05-20T09:33:53.309Z,55.58
2019-05-20T09:36:26.035Z,55.26
2019-05-20T09:38:56.801Z,55.01
2019-05-20T09:41:27.268Z,54.66
2019-05-20T09:43:57.648Z,56.34
2019-05-20T09:46:27.903Z,55.70
2019-05-20T09:48:58.144Z,54.46
2019-05-20T09:51:28.578Z,54.33
2019-05-20T09:53:59.013Z,54.58
2019-05-20T09:56:29.366Z,55.29
2019-05-20T09:58:59.613Z,55.40
2019-05-20T10:01:29.948Z,56.65
2019-05-20T10:04:00.524Z,57.26
2019-05-20T10:06:30.900Z,58.17
2019-05-20T10:09:01.219Z,58.01
2019-05-20T10:11:31.454Z,57.26
2019-05-20T10:14:01.738Z,57.54
2019-05-20T10:16:32.160Z,57.79
2019-05-20T10:19:03.576Z,58.00
2019-05-20T10:21:33.792Z,57.95
2019-05-20T10:24:04.146Z,57.71
2019-05-20T10:26:34.426Z,56.61
2019-05-20T10:29:05.789Z,55.58
2019-05-20T10:31:36.234Z,55.32
2019-05-20T10:34:06.618Z,53.88
2019-05-20T10:36:36.866Z,53.22
2019-05-20T10:39:08.779Z,53.09
2019-05-20T10:41:39.390Z,52.74
2019-05-20T10:44:09.661Z,52.37
2019-05-20T10:46:39.894Z,52.63
2019-05-20T10:49:10.126Z,52.69
2019-05-20T10:51:40.456Z,53.17
2019-05-20T10:54:10.714Z,53.56
2019-05-20T10:56:40.898Z,53.80
2019-05-20T10:59:12.084Z,54.02
2019-05-20T11:01:42.967Z,54.78
2019-05-20T11:04:13.221Z,55.55
2019-05-20T11:06:43.503Z,55.90
2019-05-20T11:09:14.651Z,55.43
2019-05-20T11:11:45.197Z,54.75
2019-05-20T11:14:16.151Z,54.91
2019-05-20T11:16:46.830Z,54.52
2019-05-20T11:19:18.329Z,55.43
2019-05-20T11:21:49.080Z,55.13
2019-05-20T11:24:20.090Z,54.62
2019-05-20T11:26:51.056Z,55.08
2019-05-20T11:29:21.665Z,55.46
2019-05-20T11:31:52.256Z,54.98
2019-05-20T11:34:23.021Z,55.11
2019-05-20T11:36:53.573Z,56.74
2019-05-20T11:39:33.351Z,56.93
2019-05-20T11:42:17.930Z,58.03
2019-05-20T11:44:48.475Z,57.89
2019-05-20T11:47:19.137Z,57.53
2019-05-20T11:49:49.842Z,57.82
2019-05-20T11:52:20.378Z,57.89
2019-05-20T11:55:10.876Z,58.28
2019-05-20T11:57:41.719Z,58.50
2019-05-20T12:00:13.130Z,58.28
2019-05-20T12:02:43.685Z,58.51
2019-05-20T12:05:14.667Z,58.23
2019-05-20T12:07:46.500Z,58.40
2019-05-20T12:10:17.585Z,58.77
2019-05-20T12:12:48.078Z,58.29
2019-05-20T12:15:19.690Z,57.75
2019-05-20T12:17:51.157Z,57.59
2019-05-20T12:20:22.729Z,57.87
2019-05-20T12:22:53.310Z,59.21
2019-05-20T12:25:23.987Z,59.41
2019-05-20T12:27:54.673Z,58.70
2019-05-20T12:30:25.322Z,58.15
2019-05-20T12:33:17.041Z,58.29
2019-05-20T12:35:30.523Z,58.58
2019-05-20T12:38:01.958Z,58.99
2019-05-20T12:40:32.471Z,59.54
2019-05-20T12:43:02.917Z,60.48
2019-05-20T12:45:33.589Z,58.86
2019-05-20T12:48:04.319Z,58.84
2019-05-20T12:50:34.807Z,57.69
2019-05-20T12:53:05.482Z,58.39
2019-05-20T12:55:35.999Z,58.78
2019-05-20T12:58:06.492Z,58.49
2019-05-20T13:00:37.080Z,57.58
2019-05-20T13:03:07.577Z,57.81
2019-05-20T13:05:38.004Z,57.90
2019-05-20T13:08:08.525Z,57.50
2019-05-20T13:10:39.388Z,57.40
2019-05-20T13:13:10.064Z,57.92
2019-05-20T13:15:40.787Z,57.70
2019-05-20T13:18:11.313Z,58.44
2019-05-20T13:20:42.840Z,57.55
2019-05-20T13:23:15.269Z,57.80
2019-05-20T13:25:45.503Z,58.15
2019-05-20T13:28:16.025Z,58.31
2019-05-20T13:30:47.063Z,59.04
2019-05-20T13:33:17.299Z,59.41
2019-05-20T13:35:47.641Z,59.51
2019-05-20T13:38:18.309Z,60.21
2019-05-20T13:40:49.514Z,60.70
2019-05-20T13:43:20.150Z,60.65
2019-05-20T13:45:50.747Z,61.32
2019-05-20T13:48:21.526Z,61.81
2019-05-20T13:50:52.091Z,61.80
2019-05-20T13:53:22.380Z,61.93
2019-05-20T13:55:52.671Z,62.28
2019-05-20T13:58:23.188Z,61.94
2019-05-20T14:00:53.573Z,61.83
2019-05-20T14:03:23.716Z,61.55
2019-05-20T14:05:54.073Z,60.46
2019-05-20T14:08:24.399Z,60.22
2019-05-20T14:11:03.723Z,59.75
2019-05-20T14:13:27.280Z,59.90
2019-05-20T14:15:57.514Z,59.40
2019-05-20T14:18:27.830Z,58.06
2019-05-20T14:20:59.108Z,58.33
2019-05-20T14:23:29.371Z,58.58
2019-05-20T14:25:59.696Z,59.39
2019-05-20T14:28:29.964Z,59.62
2019-05-20T14:31:00.603Z,59.61
2019-05-20T14:33:31.045Z,59.27
2019-05-20T14:36:02.749Z,59.40
2019-05-20T14:38:34.474Z,59.53
2019-05-20T14:41:20.458Z,59.20
2019-05-20T14:43:39.117Z,59.03
2019-05-20T14:46:09.748Z,58.52
2019-05-20T14:48:40.458Z,58.44
2019-05-20T14:51:11.249Z,58.00
2019-05-20T14:53:43.242Z,58.71
2019-05-20T14:56:14.552Z,59.00
2019-05-20T14:58:46.598Z,58.62
2019-05-20T15:01:18.462Z,58.70
2019-05-20T15:03:48.954Z,58.52
2019-05-20T15:06:19.286Z,58.29
2019-05-20T15:08:51.403Z,58.47
2019-05-20T15:11:37.122Z,58.29
2019-05-20T15:13:54.059Z,59.43
2019-05-20T15:16:25.031Z,59.67
2019-05-20T15:18:55.401Z,59.68
2019-05-20T15:21:29.332Z,59.54
2019-05-20T15:23:58.973Z,60.37
2019-05-20T15:26:29.888Z,60.21
2019-05-20T15:29:03.322Z,60.66
2019-05-20T15:31:34.489Z,61.02
2019-05-20T15:34:05.226Z,61.28
2019-05-20T15:36:38.260Z,61.96
2019-05-20T15:39:09.155Z,62.99
2019-05-20T15:41:40.575Z,63.18
2019-05-20T15:44:11.435Z,63.34
2019-05-20T15:47:02.300Z,63.34
2019-05-20T15:49:33.851Z,63.51
2019-05-20T15:52:04.750Z,62.94
2019-05-20T15:54:35.768Z,62.60
2019-05-20T15:57:06.539Z,62.76
2019-05-20T15:59:46.067Z,62.73
2019-05-20T16:02:10.022Z,63.02
2019-05-20T16:04:40.722Z,63.35
2019-05-20T16:07:11.520Z,63.79
2019-05-20T16:09:42.307Z,64.12
2019-05-20T16:12:13.489Z,64.68
2019-05-20T16:14:44.271Z,65.09
2019-05-20T16:17:16.042Z,65.07
2019-05-20T16:19:48.309Z,65.22
2019-05-20T16:22:22.131Z,65.45
2019-05-20T16:24:53.008Z,65.46
2019-05-20T16:27:23.833Z,65.59
2019-05-20T16:30:06.255Z,65.41
2019-05-20T16:32:26.997Z,65.54
2019-05-20T16:34:57.478Z,65.74
2019-05-20T16:37:27.867Z,65.89
2019-05-20T16:39:58.510Z,66.40
2019-05-20T16:42:29.114Z,66.27
2019-05-20T16:44:59.575Z,66.78
2019-05-20T16:47:30.083Z,67.00
2019-05-20T16:50:00.473Z,67.15
2019-05-20T16:52:30.951Z,67.64
2019-05-20T16:55:02.106Z,67.70
2019-05-20T16:57:32.829Z,68.14
2019-05-20T17:00:07.286Z,68.30
2019-05-20T17:02:35.572Z,68.53
2019-05-20T17:05:06.303Z,69.05
2019-05-20T17:07:37.432Z,69.20
2019-05-20T17:10:08.806Z,69.69
2019-05-20T17:12:39.644Z,69.50
2019-05-20T17:15:11.477Z,69.83
2019-05-20T17:17:42.051Z,70.54
2019-05-20T17:20:12.522Z,71.44
2019-05-20T17:22:45.500Z,72.02
2019-05-20T17:25:16.265Z,72.42
2019-05-20T17:27:46.766Z,73.13
2019-05-20T17:30:17.488Z,73.26
2019-05-20T17:32:47.920Z,73.43
2019-05-20T17:35:19.130Z,73.38
2019-05-20T17:37:49.556Z,73.41
2019-05-20T17:40:21.531Z,73.44
2019-05-20T17:42:52.527Z,73.62
2019-05-20T17:45:24.933Z,73.88
2019-05-20T17:47:56.387Z,73.60
2019-05-20T17:50:27.761Z,73.69
2019-05-20T17:52:58.882Z,73.94
2019-05-20T17:55:30.425Z,73.70
2019-05-20T17:58:01.234Z,73.12
2019-05-20T18:00:33.418Z,73.52
2019-05-20T18:03:04.190Z,73.54
2019-05-20T18:05:36.358Z,73.87
2019-05-20T18:08:07.068Z,73.48
2019-05-20T18:10:37.817Z,73.16
2019-05-20T18:13:08.971Z,73.16
2019-05-20T18:15:39.985Z,73.23
2019-05-20T18:18:11.186Z,72.93
2019-05-20T18:20:42.312Z,72.71
2019-05-20T18:23:14.102Z,72.65
2019-05-20T18:25:45.018Z,72.50
2019-05-20T18:28:15.687Z,72.68
2019-05-20T18:30:46.148Z,72.56
2019-05-20T18:33:16.638Z,71.91
2019-05-20T18:35:47.475Z,71.72
2019-05-20T18:38:18.265Z,72.09
2019-05-20T18:40:49.380Z,71.87
2019-05-20T18:43:21.295Z,71.44
2019-05-20T18:45:52.510Z,70.42
2019-05-20T18:48:23.447Z,70.39
2019-05-20T18:50:56.140Z,70.38
2019-05-20T18:53:27.065Z,70.66
2019-05-20T18:55:57.894Z,70.62
2019-05-20T18:58:28.949Z,70.57
2019-05-20T19:00:59.396Z,69.90
2019-05-20T19:03:31.707Z,69.50
2019-05-20T19:06:03.093Z,68.76
2019-05-20T19:08:33.715Z,67.35
2019-05-20T19:11:05.117Z,66.84
2019-05-20T19:13:38.253Z,65.74
2019-05-20T19:16:10.153Z,64.53
2019-05-20T19:18:41.093Z,65.29
2019-05-20T19:21:11.775Z,65.26
2019-05-20T19:23:43.858Z,64.87
2019-05-20T19:26:24.468Z,64.81
2019-05-20T19:28:47.671Z,64.89
2019-05-20T19:31:20.184Z,64.79
2019-05-20T19:33:52.148Z,64.88
2019-05-20T19:36:24.610Z,65.32
2019-05-20T19:38:56.677Z,65.60
2019-05-20T19:41:29.429Z,65.55
2019-05-20T19:44:00.456Z,65.56
2019-05-20T19:46:32.738Z,65.88
2019-05-20T19:49:03.227Z,66.22
2019-05-20T19:51:34.107Z,66.56
2019-05-20T19:54:05.109Z,67.06
2019-05-20T19:56:36.004Z,67.36
2019-05-20T19:59:06.356Z,67.78
2019-05-20T20:01:38.545Z,68.02
2019-05-20T20:04:09.887Z,68.08
2019-05-20T20:06:40.992Z,68.52
2019-05-20T20:09:11.987Z,68.83
2019-05-20T20:11:42.980Z,68.94
2019-05-20T20:14:13.926Z,69.22
2019-05-20T20:16:44.348Z,69.31
2019-05-20T20:19:14.701Z,69.23
2019-05-20T20:21:46.431Z,69.25
2019-05-20T20:24:18.042Z,69.32
2019-05-20T20:26:48.602Z,69.23
2019-05-20T20:29:19.490Z,69.45
2019-05-20T20:31:50.027Z,69.50
2019-05-20T20:34:21.456Z,69.19
2019-05-20T20:36:52.453Z,69.52
2019-05-20T20:39:23.210Z,69.52
2019-05-20T20:41:54.119Z,70.00
2019-05-20T20:44:24.897Z,69.79
2019-05-20T20:46:56.943Z,69.83
2019-05-20T20:49:27.942Z,69.83
2019-05-20T20:51:58.766Z,69.95
2019-05-20T20:54:29.420Z,69.98
2019-05-20T20:57:02.371Z,70.01
2019-05-20T20:59:34.488Z,70.17
2019-05-20T21:02:06.806Z,70.15
2019-05-20T21:04:37.553Z,70.13
2019-05-20T21:07:09.222Z,70.40
2019-05-20T21:09:41.383Z,70.38
2019-05-20T21:12:12.072Z,70.41
2019-05-20T21:14:43.854Z,70.78
2019-05-20T21:17:14.413Z,70.83
2019-05-20T21:19:44.991Z,70.87
2019-05-20T21:22:15.807Z,70.86
2019-05-20T21:24:47.512Z,71.06
2019-05-20T21:27:19.685Z,71.40
2019-05-20T21:29:50.226Z,71.80
2019-05-20T21:32:22.104Z,72.26
2019-05-20T21:34:54.305Z,72.36
2019-05-20T21:37:26.454Z,72.35
2019-05-20T21:39:56.838Z,72.43
2019-05-20T21:42:27.276Z,72.70
2019-05-20T21:44:57.722Z,72.81
2019-05-20T21:47:28.101Z,73.00
2019-05-20T21:49:58.444Z,73.20
2019-05-20T21:52:28.861Z,73.17
2019-05-20T21:54:59.265Z,73.30
2019-05-20T21:57:30.236Z,73.62
2019-05-20T22:00:00.650Z,73.69
2019-05-20T22:02:31.115Z,73.91
2019-05-20T22:05:01.526Z,73.89
2019-05-20T22:07:31.984Z,74.02
2019-05-20T22:10:02.417Z,74.56
2019-05-20T22:12:33.443Z,74.64
2019-05-20T22:15:04.090Z,74.54
2019-05-20T22:17:34.680Z,74.48
2019-05-20T22:20:06.889Z,74.54
2019-05-20T22:22:43.153Z,74.45
2019-05-20T22:25:15.092Z,74.17
2019-05-20T22:27:45.719Z,73.80
2019-05-20T22:30:18.009Z,73.13
2019-05-20T22:32:49.843Z,72.62
2019-05-20T22:35:24.593Z,72.28
2019-05-20T22:37:55.352Z,71.84
2019-05-20T22:40:26.657Z,71.37
2019-05-20T22:42:57.474Z,71.18
2019-05-20T22:45:29.855Z,71.47
2019-05-20T22:48:00.708Z,71.07
2019-05-20T22:50:33.238Z,70.37
2019-05-20T22:53:03.861Z,70.16
2019-05-20T22:55:34.582Z,70.44
2019-05-20T22:58:05.322Z,70.62
2019-05-20T23:00:36.276Z,70.52
2019-05-20T23:03:07.239Z,70.30
2019-05-20T23:05:37.839Z,70.41
2019-05-20T23:08:09.728Z,70.73
2019-05-20T23:10:40.557Z,70.82
2019-05-20T23:13:11.449Z,71.18
2019-05-20T23:15:44.895Z,71.51
2019-05-20T23:18:16.495Z,71.68
2019-05-20T23:20:47.182Z,71.79
2019-05-20T23:23:19.367Z,71.67
2019-05-20T23:25:53.137Z,72.11
2019-05-20T23:28:23.902Z,71.83
2019-05-20T23:30:55.438Z,71.38
2019-05-20T23:33:27.630Z,70.98
2019-05-20T23:35:58.480Z,70.42
2019-05-20T23:38:29.479Z,70.00
2019-05-20T23:41:00.465Z,69.60
2019-05-20T23:43:32.319Z,69.40
2019-05-20T23:46:03.179Z,69.03
2019-05-20T23:48:34.016Z,68.92
2019-05-20T23:51:04.935Z,68.97
2019-05-20T23:53:35.728Z,69.00
2019-05-20T23:56:06.793Z,68.86
2019-05-20T23:58:37.584Z,68.96
